Time;durP1;ratioP1;P1;durP2;ratioP2;P2;SDS_P1;SDS_P2;PMS_P1;PMS_P2;Temp;Humidity;BMP_temperature;BMP_pressure;BME280_temperature;BME280_humidity;BME280_pressure;Samples;Min_cycle;Max_cycle;Signal;HPM_P1;HPM_P2
2023/01/08 00:01:35;;;;;;;1.00;1.00;;;;;4.60;95411.00;;;;5036311;28;20243;-74
2023/01/08 00:04:03;;;;;;;1.53;1.43;;;;;4.60;95418.00;;;;5018171;28;20220;-74
2023/01/08 00:06:30;;;;;;;1.30;1.30;;;;;4.60;95419.00;;;;5035621;28;20217;-73
2023/01/08 00:08:58;;;;;;;1.60;1.40;;;;;4.70;95417.00;;;;5035605;28;20563;-73
2023/01/08 00:11:26;;;;;;;1.47;1.37;;;;;4.80;95411.00;;;;5034521;28;20204;-74
2023/01/08 00:13:53;;;;;;;1.83;1.73;;;;;4.90;95406.00;;;;5018141;28;20198;-71
2023/01/08 00:16:22;;;;;;;2.53;2.33;;;;;4.50;95389.00;;;;5035656;28;20217;-73
2023/01/08 00:18:49;;;;;;;2.13;1.93;;;;;4.50;95391.00;;;;5035681;28;20189;-73
2023/01/08 00:21:17;;;;;;;2.77;2.57;;;;;4.40;95387.00;;;;5035732;28;20598;-74
2023/01/08 00:23:44;;;;;;;1.50;1.47;;;;;4.40;95380.00;;;;5017830;28;20224;-74
2023/01/08 00:26:12;;;;;;;1.47;1.37;;;;;4.30;95381.00;;;;5035581;28;20268;-73
2023/01/08 00:28:40;;;;;;;1.10;1.10;;;;;4.20;95376.00;;;;5035417;28;20207;-73
2023/01/08 00:31:09;;;;;;;1.67;1.60;;;;;4.30;95371.00;;;;5035906;28;20193;-73
2023/01/08 00:33:39;;;;;;;1.87;1.77;;;;;4.40;95367.00;;;;5017574;28;20196;-73
2023/01/08 00:36:08;;;;;;;1.03;1.03;;;;;4.30;95372.00;;;;5035327;28;20221;-73
2023/01/08 00:38:36;;;;;;;2.03;1.90;;;;;4.20;95359.00;;;;5035306;28;20193;-74
2023/01/08 00:41:03;;;;;;;1.17;1.17;;;;;4.20;95373.00;;;;5035205;28;20189;-74
2023/01/08 00:43:30;;;;;;;1.27;1.27;;;;;4.20;95372.00;;;;5035147;28;20691;-73
2023/01/08 00:45:58;;;;;;;0.73;0.73;;;;;4.20;95373.00;;;;5035409;28;20216;-73
2023/01/08 00:48:25;;;;;;;1.40;1.40;;;;;4.00;95369.00;;;;5035377;28;20192;-73
2023/01/08 00:50:54;;;;;;;3.00;1.27;;;;;4.10;95363.00;;;;5035106;28;20193;-74
2023/01/08 00:53:23;;;;;;;1.50;1.27;;;;;4.10;95343.00;;;;5034934;28;20227;-73
2023/01/08 00:55:50;;;;;;;2.07;1.87;;;;;4.30;95345.00;;;;5034704;28;20712;-73
2023/01/08 00:58:18;;;;;;;2.10;2.00;;;;;4.30;95354.00;;;;5035002;28;20181;-74
2023/01/08 01:00:46;;;;;;;1.60;1.50;;;;;4.40;95355.00;;;;5034862;28;20279;-74
2023/01/08 01:03:13;;;;;;;1.57;1.47;;;;;4.30;95348.00;;;;5034724;28;20212;-73
2023/01/08 01:05:40;;;;;;;1.90;1.80;;;;;4.10;95339.00;;;;5034692;28;20221;-73
2023/01/08 01:08:09;;;;;;;2.07;1.87;;;;;4.10;95345.00;;;;5016892;28;20622;-73
2023/01/08 01:10:39;;;;;;;1.33;1.33;;;;;4.40;95341.00;;;;5034732;28;20266;-73
2023/01/08 01:13:06;;;;;;;1.53;1.47;;;;;4.20;95329.00;;;;5034624;28;20194;-73
2023/01/08 01:15:34;;;;;;;1.87;1.73;;;;;4.10;95315.00;;;;5034528;28;20216;-73
2023/01/08 01:18:01;;;;;;;3.00;2.70;;;;;3.80;95327.00;;;;5034805;28;20200;-73
2023/01/08 01:20:29;;;;;;;1.93;1.83;;;;;3.90;95321.00;;;;5035232;28;20208;-73
2023/01/08 01:22:56;;;;;;;2.27;2.17;;;;;3.70;95325.00;;;;5033942;28;20704;-73
2023/01/08 01:25:25;;;;;;;1.67;1.57;;;;;3.60;95336.00;;;;5034571;28;20209;-73
2023/01/08 01:27:52;;;;;;;2.53;2.33;;;;;3.90;95334.00;;;;5034475;28;20192;-72
2023/01/08 01:30:20;;;;;;;1.00;1.00;;;;;3.70;95342.00;;;;5034678;28;20294;-73
2023/01/08 01:32:47;;;;;;;1.10;1.10;;;;;3.80;95328.00;;;;5034882;28;20219;-73
2023/01/08 01:35:15;;;;;;;6.30;2.63;;;;;3.90;95334.00;;;;5034176;28;20204;-74
2023/01/08 01:37:42;;;;;;;1.60;1.60;;;;;3.90;95336.00;;;;5016499;28;20197;-74
2023/01/08 01:40:10;;;;;;;3.40;2.07;;;;;4.10;95324.00;;;;5034085;28;20192;-74
2023/01/08 01:42:39;;;;;;;2.70;2.50;;;;;4.20;95320.00;;;;5034045;28;20219;-74
2023/01/08 01:45:16;;;;;;;1.47;1.37;;;;;4.30;95333.00;;;;5033932;28;20201;-74
2023/01/08 01:47:46;;;;;;;3.97;2.57;;;;;4.40;95332.00;;;;5034212;28;20539;-74
2023/01/08 01:50:16;;;;;;;2.23;2.03;;;;;4.50;95320.00;;;;5034102;28;20185;-73
2023/01/08 01:52:51;;;;;;;2.20;2.07;;;;;4.60;95331.00;;;;5034144;28;20185;-73
2023/01/08 01:55:18;;;;;;;1.00;1.00;;;;;4.60;95326.00;;;;5033590;28;20216;-73
2023/01/08 01:57:52;;;;;;;1.53;1.53;;;;;4.60;95308.00;;;;5039741;23;20723;-59
2023/01/08 02:00:20;;;;;;;1.20;1.20;;;;;4.60;95307.00;;;;5033733;28;20178;-59
2023/01/08 02:02:48;;;;;;;2.55;1.85;;;;;4.80;95308.00;;;;5033635;28;20199;-59
2023/01/08 02:05:16;;;;;;;1.83;1.73;;;;;4.60;95299.00;;;;5033679;28;20193;-60
2023/01/08 02:07:52;;;;;;;2.87;2.27;;;;;4.70;95293.00;;;;5033517;28;20217;-59
2023/01/08 02:10:25;;;;;;;1.73;1.63;;;;;4.70;95298.00;;;;5033637;28;20186;-60
2023/01/08 02:12:59;;;;;;;3.53;2.13;;;;;4.70;95296.00;;;;5034106;28;20184;-60
2023/01/08 02:15:32;;;;;;;1.47;1.37;;;;;4.70;95296.00;;;;5033496;28;20181;-60
2023/01/08 02:18:06;;;;;;;2.00;1.80;;;;;4.70;95282.00;;;;5033446;28;20607;-59
2023/01/08 02:20:37;;;;;;;1.20;1.20;;;;;4.80;95284.00;;;;5033446;28;20181;-60
2023/01/08 02:23:21;;;;;;;1.70;1.60;;;;;4.70;95288.00;;;;5033590;28;20613;-60
2023/01/08 02:26:16;;;;;;;1.23;1.23;;;;;4.70;95270.00;;;;5032169;28;20203;-60
2023/01/08 02:28:47;;;;;;;1.23;1.23;;;;;4.60;95276.00;;;;5033682;28;20174;-60
2023/01/08 02:31:16;;;;;;;1.73;1.63;;;;;4.60;95268.00;;;;5033881;28;20256;-60
2023/01/08 02:33:43;;;;;;;1.57;1.47;;;;;4.60;95273.00;;;;5032705;28;20718;-60
2023/01/08 02:36:25;;;;;;;1.37;1.07;;;;;4.60;95271.00;;;;5032976;28;20197;-59
2023/01/08 02:39:04;;;;;;;1.40;1.30;;;;;4.70;95271.00;;;;5033402;28;20621;-59
2023/01/08 02:41:42;;;;;;;0.97;0.97;;;;;4.70;95271.00;;;;5033472;28;20231;-59
2023/01/08 02:44:13;;;;;;;1.70;1.60;;;;;4.70;95273.00;;;;5033267;28;20254;-59
2023/01/08 02:46:42;;;;;;;1.53;1.43;;;;;4.70;95269.00;;;;5033393;28;20218;-59
2023/01/08 02:49:13;;;;;;;1.40;1.40;;;;;4.70;95262.00;;;;5031684;28;20261;-59
2023/01/08 02:51:45;;;;;;;1.80;1.70;;;;;4.70;95259.00;;;;5033527;28;20189;-59
2023/01/08 02:54:19;;;;;;;1.33;1.23;;;;;4.70;95258.00;;;;5033268;28;20189;-59
2023/01/08 02:56:53;;;;;;;1.67;1.57;;;;;4.60;95254.00;;;;5032649;28;20224;-59
2023/01/08 02:59:22;;;;;;;1.50;1.40;;;;;4.50;95243.00;;;;5033176;28;20253;-59
2023/01/08 03:01:50;;;;;;;0.97;0.97;;;;;4.50;95233.00;;;;5033061;28;20560;-59
2023/01/08 03:04:21;;;;;;;2.70;1.20;;;;;4.50;95227.00;;;;5033030;28;20591;-59
2023/01/08 03:06:49;;;;;;;1.63;1.53;;;;;4.60;95233.00;;;;5033092;28;20223;-59
2023/01/08 03:09:17;;;;;;;0.90;0.90;;;;;4.70;95228.00;;;;5032775;28;20200;-59
2023/01/08 03:11:53;;;;;;;1.40;1.40;;;;;4.80;95228.00;;;;5032713;28;20201;-59
2023/01/08 03:14:25;;;;;;;1.50;1.43;;;;;4.80;95248.00;;;;5032994;28;20644;-59
2023/01/08 03:16:58;;;;;;;1.87;1.77;;;;;4.80;95233.00;;;;5032912;28;20274;-58
2023/01/08 03:19:30;;;;;;;1.20;1.20;;;;;4.80;95232.00;;;;5032779;28;20721;-59
2023/01/08 03:22:00;;;;;;;1.57;1.47;;;;;4.80;95219.00;;;;5031411;28;20201;-59
2023/01/08 03:24:33;;;;;;;0.90;0.90;;;;;4.90;95210.00;;;;5032865;28;20207;-59
2023/01/08 03:27:05;;;;;;;1.30;1.20;;;;;4.90;95215.00;;;;5032841;28;20223;-59
2023/01/08 03:29:34;;;;;;;1.83;1.73;;;;;4.90;95211.00;;;;5032634;28;20182;-59
2023/01/08 03:32:06;;;;;;;1.60;1.50;;;;;4.90;95206.00;;;;5032856;28;20557;-59
2023/01/08 03:34:36;;;;;;;3.97;2.53;;;;;4.90;95206.00;;;;5032647;28;20177;-59
2023/01/08 03:37:07;;;;;;;1.10;1.07;;;;;4.90;95196.00;;;;5032546;28;20222;-59
2023/01/08 03:39:41;;;;;;;2.13;2.03;;;;;5.00;95206.00;;;;5033101;28;20235;-59
2023/01/08 03:42:13;;;;;;;2.87;1.63;;;;;5.10;95198.00;;;;5032518;28;20178;-59
2023/01/08 03:44:41;;;;;;;2.23;2.03;;;;;5.20;95194.00;;;;5032431;28;20203;-59
2023/01/08 03:47:10;;;;;;;1.63;1.53;;;;;5.30;95194.00;;;;5036095;28;20238;-59
2023/01/08 03:49:40;;;;;;;1.00;1.00;;;;;5.00;95186.00;;;;5036401;28;20228;-59
2023/01/08 03:52:07;;;;;;;1.53;1.43;;;;;5.00;95198.00;;;;5036355;28;20595;-59
2023/01/08 03:54:36;;;;;;;1.37;1.37;;;;;5.00;95197.00;;;;5035998;28;20189;-59
2023/01/08 03:57:04;;;;;;;1.23;1.23;;;;;5.00;95204.00;;;;5035935;28;20596;-61
2023/01/08 03:59:32;;;;;;;1.60;1.50;;;;;5.00;95195.00;;;;5036213;28;20610;-59
2023/01/08 04:02:00;;;;;;;2.03;1.87;;;;;5.00;95201.00;;;;5035938;28;20197;-59
2023/01/08 04:04:27;;;;;;;1.70;1.60;;;;;5.00;95196.00;;;;5035778;28;20683;-59
2023/01/08 04:06:55;;;;;;;1.07;1.07;;;;;4.90;95198.00;;;;5035776;28;20224;-59
2023/01/08 04:09:22;;;;;;;1.70;1.27;;;;;5.00;95197.00;;;;5035793;28;20199;-59
2023/01/08 04:11:49;;;;;;;0.60;0.60;;;;;4.80;95196.00;;;;5035658;28;20197;-59
2023/01/08 04:14:17;;;;;;;0.80;0.80;;;;;4.80;95206.00;;;;5035642;28;20188;-59
2023/01/08 04:16:46;;;;;;;1.10;1.10;;;;;4.60;95206.00;;;;5035527;28;20219;-59
2023/01/08 04:19:14;;;;;;;1.67;1.57;;;;;4.60;95206.00;;;;5035820;28;20278;-59
2023/01/08 04:21:41;;;;;;;3.87;2.27;;;;;4.30;95209.00;;;;5035817;28;20192;-59
2023/01/08 04:24:09;;;;;;;1.33;1.23;;;;;4.20;95218.00;;;;5035377;28;20216;-58
2023/01/08 04:26:36;;;;;;;1.00;1.00;;;;;4.50;95206.00;;;;5035627;28;20275;-59
2023/01/08 04:29:04;;;;;;;1.10;1.10;;;;;4.70;95206.00;;;;5035388;28;20248;-59
2023/01/08 04:31:32;;;;;;;1.43;1.43;;;;;4.80;95217.00;;;;5035586;28;20565;-61
2023/01/08 04:34:01;;;;;;;0.90;0.90;;;;;4.90;95205.00;;;;5035792;28;20192;-59
2023/01/08 04:36:28;;;;;;;1.90;1.80;;;;;4.90;95221.00;;;;5035679;28;20222;-59
2023/01/08 04:38:56;;;;;;;3.03;1.37;;;;;5.10;95208.00;;;;5035162;28;20559;-60
2023/01/08 04:41:23;;;;;;;1.27;1.27;;;;;5.20;95217.00;;;;5035173;28;20193;-59
2023/01/08 04:43:51;;;;;;;1.23;1.20;;;;;5.30;95220.00;;;;5034990;28;20206;-59
2023/01/08 04:46:18;;;;;;;2.10;1.90;;;;;5.30;95210.00;;;;5035040;28;20671;-59
2023/01/08 04:48:45;;;;;;;1.60;1.50;;;;;5.50;95211.00;;;;5035159;28;20274;-59
2023/01/08 04:51:14;;;;;;;1.70;1.60;;;;;5.50;95207.00;;;;5035717;28;20196;-59
2023/01/08 04:53:41;;;;;;;0.93;0.93;;;;;5.60;95201.00;;;;5035136;28;20255;-59
2023/01/08 04:56:10;;;;;;;1.30;1.20;;;;;5.60;95201.00;;;;5035244;28;20652;-59
2023/01/08 04:58:39;;;;;;;1.27;1.17;;;;;5.80;95191.00;;;;5033989;28;20196;-58
2023/01/08 05:01:14;;;;;;;0.67;0.67;;;;;5.60;95205.00;;;;5035525;28;20548;-58
2023/01/08 05:03:41;;;;;;;1.03;1.03;;;;;5.70;95202.00;;;;5034901;28;20247;-59
2023/01/08 05:06:09;;;;;;;1.63;1.53;;;;;5.80;95191.00;;;;5034614;28;20193;-59
2023/01/08 05:08:37;;;;;;;0.87;0.87;;;;;5.90;95193.00;;;;5034628;28;20198;-59
2023/01/08 05:11:05;;;;;;;0.80;0.80;;;;;6.00;95195.00;;;;5034835;28;20196;-59
2023/01/08 05:13:32;;;;;;;0.73;0.73;;;;;5.90;95185.00;;;;5034856;28;20259;-59
2023/01/08 05:16:00;;;;;;;0.60;0.60;;;;;5.90;95175.00;;;;5034417;28;20191;-59
2023/01/08 05:18:28;;;;;;;0.70;0.70;;;;;6.00;95182.00;;;;5034455;28;20656;-59
2023/01/08 05:21:00;;;;;;;1.00;1.00;;;6.90;89.60;6.10;95185.00;;;;5034413;28;20195;-58
2023/01/08 05:23:27;;;;;;;0.80;0.80;;;7.00;89.30;6.20;95190.00;;;;5034507;28;20213;-59
2023/01/08 05:25:58;;;;;;;1.07;1.07;;;;;6.40;95185.00;;;;5034466;28;20212;-59
2023/01/08 05:28:26;;;;;;;1.30;1.13;;;;;6.50;95181.00;;;;5034298;28;20181;-58
2023/01/08 05:30:53;;;;;;;0.80;0.80;;;7.20;90.70;6.40;95190.00;;;;5034292;28;20193;-59
2023/01/08 05:33:21;;;;;;;1.00;0.73;;;7.20;91.80;6.40;95185.00;;;;5034318;28;20192;-59
2023/01/08 05:35:48;;;;;;;0.73;0.73;;;;;6.60;95183.00;;;;5034360;28;20208;-58
2023/01/08 05:38:16;;;;;;;0.90;0.90;;;;;6.60;95205.00;;;;5033991;28;20219;-59
2023/01/08 05:40:43;;;;;;;0.93;0.93;;;7.40;92.20;6.70;95184.00;;;;5034517;28;20219;-58
2023/01/08 05:43:12;;;;;;;0.60;0.60;;;7.40;92.30;6.70;95179.00;;;;5034001;28;20191;-59
2023/01/08 05:45:39;;;;;;;0.50;0.50;;;;;6.70;95177.00;;;;5033830;28;20263;-59
2023/01/08 05:48:07;;;;;;;0.70;0.70;;;7.50;92.20;6.80;95187.00;;;;5033896;28;20208;-58
2023/01/08 05:50:34;;;;;;;1.07;1.00;;;7.50;92.30;6.80;95189.00;;;;5034122;28;20788;-58
2023/01/08 05:53:01;;;;;;;0.80;0.80;;;7.50;92.80;6.70;95180.00;;;;5033775;28;20196;-58
2023/01/08 05:55:29;;;;;;;0.67;0.67;;;;;6.60;95180.00;;;;5033772;28;20197;-59
2023/01/08 05:57:56;;;;;;;0.70;0.70;;;7.50;93.40;6.60;95169.00;;;;5033595;28;20220;-59
2023/01/08 06:00:25;;;;;;;0.50;0.50;;;7.50;93.90;6.80;95178.00;;;;5033773;28;20664;-59
2023/01/08 06:02:52;;;;;;;0.70;0.70;;;;;6.80;95172.00;;;;5033683;28;20227;-59
2023/01/08 06:05:20;;;;;;;0.60;0.60;;;;;6.80;95172.00;;;;5033504;28;20208;-59
2023/01/08 06:07:47;;;;;;;1.43;1.00;;;;;6.80;95170.00;;;;5033465;28;20219;-59
2023/01/08 06:10:15;;;;;;;0.60;0.60;;;;;6.80;95169.00;;;;5033446;28;20211;-59
2023/01/08 06:12:42;;;;;;;0.60;0.60;;;;;6.80;95169.00;;;;5033795;28;20283;-58
2023/01/08 06:15:11;;;;;;;0.60;0.60;;;;;6.80;95165.00;;;;5033462;28;20193;-59
2023/01/08 06:17:40;;;;;;;0.60;0.60;;;;;6.70;95170.00;;;;5033357;28;20262;-59
2023/01/08 06:20:08;;;;;;;0.63;0.63;;;;;6.70;95166.00;;;;5033414;28;20269;-59
2023/01/08 06:22:36;;;;;;;0.60;0.60;;;;;6.60;95157.00;;;;5033346;28;20189;-59
2023/01/08 06:25:04;;;;;;;0.70;0.70;;;;;6.80;95170.00;;;;5033485;28;20224;-58
2023/01/08 06:27:32;;;;;;;0.50;0.50;;;;;6.80;95161.00;;;;5033251;28;20279;-58
2023/01/08 06:29:59;;;;;;;0.93;0.93;;;;;6.70;95162.00;;;;5033256;28;20201;-59
2023/01/08 06:32:26;;;;;;;0.60;0.60;;;;;6.80;95159.00;;;;5033720;28;20197;-58
2023/01/08 06:34:55;;;;;;;0.73;0.73;;;;;6.70;95151.00;;;;5033137;28;20251;-59
2023/01/08 06:37:23;;;;;;;0.70;0.70;;;;;6.70;95144.00;;;;5033276;28;20270;-59
2023/01/08 06:39:50;;;;;;;0.63;0.63;;;;;6.70;95155.00;;;;5033306;28;20675;-59
2023/01/08 06:42:17;;;;;;;0.80;0.80;;;;;6.80;95156.00;;;;5033595;28;20656;-58
2023/01/08 06:44:44;;;;;;;0.60;0.60;;;7.60;94.60;6.80;95159.00;;;;5031989;28;20230;-59
2023/01/08 06:47:11;;;;;;;0.60;0.60;;;7.60;94.70;6.80;95149.00;;;;5032963;28;20213;-59
2023/01/08 06:49:38;;;;;;;0.60;0.60;;;7.60;94.20;6.90;95150.00;;;;5032969;28;20709;-59
2023/01/08 06:52:07;;;;;;;0.50;0.50;;;7.70;94.00;6.90;95146.00;;;;5032961;28;20200;-58
2023/01/08 06:54:34;;;;;;;0.50;0.50;;;7.70;94.30;6.90;95152.00;;;;5033260;28;20196;-58
2023/01/08 06:57:01;;;;;;;0.77;0.77;;;7.70;93.80;6.90;95147.00;;;;5031736;28;20314;-59
2023/01/08 06:59:28;;;;;;;0.60;0.60;;;;;7.00;95153.00;;;;5033152;28;20536;-59
2023/01/08 07:01:55;;;;;;;0.57;0.57;;;7.50;94.50;6.80;95151.00;;;;5032859;28;20203;-59
2023/01/08 07:04:23;;;;;;;1.07;0.90;;;;;6.80;95154.00;;;;5031488;28;20208;-58
2023/01/08 07:06:50;;;;;;;0.50;0.50;;;7.70;94.50;6.90;95146.00;;;;5031446;28;20217;-58
2023/01/08 07:09:18;;;;;;;4.80;0.93;;;7.70;95.00;6.90;95148.00;;;;5032992;28;20270;-58
2023/01/08 07:11:45;;;;;;;0.70;0.70;;;7.60;94.80;6.80;95146.00;;;;5032695;28;20187;-58
2023/01/08 07:14:12;;;;;;;0.60;0.60;;;7.50;96.00;6.70;95146.00;;;;5032995;28;20192;-58
2023/01/08 07:16:39;;;;;;;0.70;0.70;;;7.50;96.80;6.80;95147.00;;;;5032877;28;20216;-58
2023/01/08 07:19:06;;;;;;;0.60;0.60;;;7.50;96.30;6.80;95155.00;;;;5032659;28;20192;-58
2023/01/08 07:21:33;;;;;;;0.87;0.87;;;7.50;96.40;6.70;95150.00;;;;5035686;28;20204;-58
2023/01/08 07:24:00;;;;;;;0.60;0.60;;;7.60;96.20;6.80;95150.00;;;;5036587;28;20204;-58
2023/01/08 07:26:29;;;;;;;0.80;0.80;;;7.60;96.20;6.70;95148.00;;;;5036337;28;20564;-58
2023/01/08 07:28:56;;;;;;;0.70;0.70;;;7.40;96.90;6.70;95157.00;;;;5036576;28;20195;-58
2023/01/08 07:31:23;;;;;;;0.70;0.70;;;7.50;96.80;6.70;95154.00;;;;5036686;28;20196;-58
2023/01/08 07:33:50;;;;;;;0.60;0.60;;;;;6.70;95170.00;;;;5036532;28;20193;-58
2023/01/08 07:36:21;;;;;;;0.60;0.60;;;;;6.60;95164.00;;;;5036271;28;20192;-58
2023/01/08 07:38:48;;;;;;;0.80;0.80;;;7.50;97.80;6.70;95156.00;;;;5036651;28;20593;-58
2023/01/08 07:41:16;;;;;;;0.60;0.60;;;7.50;97.20;6.70;95158.00;;;;5036267;28;20196;-58
2023/01/08 07:43:46;;;;;;;0.50;0.50;;;7.40;98.30;6.60;95159.00;;;;5036290;28;20207;-58
2023/01/08 07:46:14;;;;;;;0.70;0.70;;;7.50;98.60;6.80;95174.00;;;;5036430;28;20674;-59
2023/01/08 07:48:42;;;;;;;0.50;0.50;;;7.50;98.40;6.70;95169.00;;;;5036466;28;20558;-58
2023/01/08 07:51:10;;;;;;;0.43;0.43;;;;;6.60;95177.00;;;;5036189;28;20196;-58
2023/01/08 07:53:37;;;;;;;0.60;0.60;;;7.50;99.00;6.70;95162.00;;;;5036064;28;20200;-58
2023/01/08 07:56:07;;;;;;;0.60;0.60;;;;;6.70;95166.00;;;;5036197;28;20200;-58
2023/01/08 07:58:35;;;;;;;0.63;0.63;;;7.50;99.70;6.70;95169.00;;;;5035904;28;20230;-58
2023/01/08 08:01:05;;;;;;;0.50;0.50;;;7.50;99.70;6.70;95154.00;;;;5036203;28;20203;-58
2023/01/08 08:03:32;;;;;;;0.73;0.73;;;7.50;99.90;6.70;95155.00;;;;5036509;28;20197;-58
2023/01/08 08:06:00;;;;;;;0.60;0.60;;;7.50;99.70;6.60;95148.00;;;;5035854;28;20226;-58
2023/01/08 08:08:28;;;;;;;0.53;0.53;;;;;6.60;95151.00;;;;5036131;28;20189;-58
2023/01/08 08:10:55;;;;;;;0.60;0.60;;;7.50;99.90;6.80;95148.00;;;;5035822;28;20195;-58
2023/01/08 08:13:22;;;;;;;0.50;0.50;;;7.60;99.90;6.90;95142.00;;;;5035789;28;20199;-58
2023/01/08 08:15:49;;;;;;;0.90;0.90;;;7.60;99.70;6.80;95146.00;;;;5035712;28;20200;-58
2023/01/08 08:18:18;;;;;;;0.60;0.60;;;7.50;99.90;6.60;95139.00;;;;5035913;28;20220;-58
2023/01/08 08:20:45;;;;;;;0.70;0.70;;;7.50;99.90;6.80;95133.00;;;;5034448;28;20253;-58
2023/01/08 08:23:14;;;;;;;1.03;0.70;;;;;6.80;95152.00;;;;5035641;28;20196;-58
2023/01/08 08:25:42;;;;;;;0.60;0.60;;;7.50;99.90;6.70;95140.00;;;;5036289;28;20213;-58
2023/01/08 08:28:11;;;;;;;0.67;0.67;;;7.60;99.90;6.70;95131.00;;;;5035535;28;20757;-58
2023/01/08 08:30:39;;;;;;;0.53;0.53;;;7.50;99.90;6.70;95136.00;;;;5036534;28;20544;-58
2023/01/08 08:33:07;;;;;;;0.73;0.73;;;7.40;99.90;6.60;95141.00;;;;5034242;28;20198;-58
2023/01/08 08:35:36;;;;;;;0.60;0.60;;;7.40;99.90;6.70;95127.00;;;;5035438;28;20257;-59
2023/01/08 08:38:04;;;;;;;0.63;0.63;;;7.40;99.90;6.60;95121.00;;;;5035202;28;20216;-58
2023/01/08 08:40:32;;;;;;;0.50;0.50;;;7.50;99.90;6.70;95133.00;;;;5035279;28;20243;-58
2023/01/08 08:43:00;;;;;;;0.83;0.80;;;;;6.70;95123.00;;;;5035580;28;20195;-58
2023/01/08 08:45:28;;;;;;;0.60;0.60;;;;;6.70;95118.00;;;;5035593;28;20224;-58
2023/01/08 08:47:56;;;;;;;0.53;0.53;;;;;6.70;95114.00;;;;5035030;28;20278;-58
2023/01/08 08:50:23;;;;;;;0.50;0.50;;;;;6.60;95129.00;;;;5035254;28;20230;-58
2023/01/08 08:52:52;;;;;;;0.50;0.50;;;;;6.70;95119.00;;;;5035030;28;20197;-58
2023/01/08 08:55:20;;;;;;;0.70;0.70;;;;;6.70;95116.00;;;;5035561;28;20200;-58
2023/01/08 08:57:48;;;;;;;0.70;0.70;;;;;6.80;95126.00;;;;5034937;28;20234;-59
2023/01/08 09:00:16;;;;;;;0.70;0.70;;;;;6.70;95110.00;;;;5034964;28;20199;-58
2023/01/08 09:02:43;;;;;;;0.60;0.60;;;;;6.70;95115.00;;;;5035038;28;20254;-58
2023/01/08 09:05:11;;;;;;;0.60;0.60;;;;;6.80;95115.00;;;;5034727;28;20192;-58
2023/01/08 09:07:39;;;;;;;0.60;0.60;;;;;6.80;95110.00;;;;5035011;28;20613;-60
2023/01/08 09:10:09;;;;;;;0.83;0.83;;;7.60;99.90;6.90;95122.00;;;;5034700;28;20197;-58
2023/01/08 09:12:36;;;;;;;1.00;0.87;;;7.60;99.90;6.80;95118.00;;;;5035440;28;20298;-58
2023/01/08 09:15:04;;;;;;;0.70;0.70;;;7.60;99.90;6.70;95123.00;;;;5034634;28;20189;-58
2023/01/08 09:17:31;;;;;;;0.70;0.70;;;7.50;99.90;6.70;95113.00;;;;5034495;28;20220;-58
2023/01/08 09:19:58;;;;;;;0.90;0.90;;;7.60;99.90;6.90;95115.00;;;;5034520;28;20199;-58
2023/01/08 09:22:25;;;;;;;0.57;0.57;;;7.50;99.90;6.90;95118.00;;;;5034760;28;20195;-59
2023/01/08 09:24:53;;;;;;;0.60;0.60;;;7.70;99.90;6.90;95127.00;;;;5034433;28;20660;-58
2023/01/08 09:27:22;;;;;;;0.70;0.70;;;7.60;99.90;7.00;95118.00;;;;5034293;28;20225;-58
2023/01/08 09:29:49;;;;;;;0.70;0.70;;;7.70;99.90;6.90;95120.00;;;;5034325;28;20199;-58
2023/01/08 09:32:16;;;;;;;0.70;0.70;;;7.60;99.90;7.00;95118.00;;;;5034345;28;20644;-58
2023/01/08 09:34:43;;;;;;;0.80;0.80;;;;;7.00;95118.00;;;;5034575;28;20189;-58
2023/01/08 09:37:10;;;;;;;0.77;0.77;;;7.70;99.90;7.00;95125.00;;;;5034172;28;20721;-58
2023/01/08 09:39:38;;;;;;;0.93;0.93;;;;;6.80;95118.00;;;;5034519;28;20710;-58
2023/01/08 09:42:07;;;;;;;0.70;0.70;;;;;6.90;95112.00;;;;5033927;28;20585;-58
2023/01/08 09:44:40;;;;;;;1.00;1.00;;;7.60;99.90;6.80;95123.00;;;;5033732;28;20250;-58
2023/01/08 09:47:24;;;;;;;0.70;0.70;;;7.70;99.90;7.10;95119.00;;;;5033915;28;20221;-58
2023/01/08 09:49:57;;;;;;;0.60;0.60;;;7.70;99.90;7.00;95133.00;;;;5034325;28;20178;-58
2023/01/08 09:52:25;;;;;;;0.63;0.63;;;;;6.90;95135.00;;;;5034258;28;20206;-59
2023/01/08 09:54:52;;;;;;;0.80;0.80;;;;;7.00;95127.00;;;;5033884;28;20202;-58
2023/01/08 09:57:22;;;;;;;0.60;0.60;;;;;7.00;95135.00;;;;5033752;28;20230;-59
2023/01/08 09:59:50;;;;;;;0.70;0.70;;;;;7.00;95125.00;;;;5033717;28;20200;-58
2023/01/08 10:02:20;;;;;;;0.60;0.60;;;;;6.90;95115.00;;;;5033725;28;20204;-58
2023/01/08 10:04:51;;;;;;;0.70;0.70;;;;;7.10;95129.00;;;;5033918;28;20588;-58
2023/01/08 10:07:21;;;;;;;0.60;0.60;;;;;7.00;95127.00;;;;5033846;28;20228;-59
2023/01/08 10:09:49;;;;;;;0.80;0.80;;;;;7.00;95137.00;;;;5033458;28;20195;-58
2023/01/08 10:12:23;;;;;;;0.60;0.60;;;;;7.00;95121.00;;;;5033854;28;20193;-58
2023/01/08 10:14:53;;;;;;;0.97;0.97;;;;;7.10;95125.00;;;;5034081;28;20182;-58
2023/01/08 10:17:27;;;;;;;0.80;0.80;;;;;7.10;95130.00;;;;5033356;28;20216;-58
2023/01/08 10:19:54;;;;;;;0.60;0.60;;;;;7.20;95129.00;;;;5033451;28;20271;-58
2023/01/08 10:22:24;;;;;;;0.60;0.60;;;;;7.30;95121.00;;;;5033525;28;20196;-59
2023/01/08 10:25:02;;;;;;;0.60;0.60;;;;;7.30;95121.00;;;;5033362;28;20185;-58
2023/01/08 10:27:30;;;;;;;0.60;0.60;;;;;7.20;95110.00;;;;5031996;28;20235;-58
2023/01/08 10:30:07;;;;;;;0.60;0.60;;;;;7.30;95101.00;;;;5033604;28;20246;-58
2023/01/08 10:32:36;;;;;;;0.80;0.80;;;;;7.30;95093.00;;;;5034138;28;20188;-58
2023/01/08 10:35:07;;;;;;;0.63;0.63;;;;;7.40;95106.00;;;;5033314;28;20201;-58
2023/01/08 10:37:41;;;;;;;0.70;0.70;;;8.40;99.90;7.40;95098.00;;;;5033204;28;20222;-58
2023/01/08 10:40:23;;;;;;;0.80;0.80;;;8.20;99.90;7.50;95098.00;;;;5033199;28;20267;-58
2023/01/08 10:42:52;;;;;;;0.70;0.70;;;;;7.70;95097.00;;;;5033412;28;20682;-58
2023/01/08 10:45:23;;;;;;;0.60;0.60;;;;;7.80;95097.00;;;;5033001;28;20207;-58
2023/01/08 10:47:55;;;;;;;4.87;1.53;;;;;8.00;95090.00;;;;5033296;28;20229;-59
2023/01/08 10:50:27;;;;;;;1.37;1.27;;;8.60;99.80;7.90;95100.00;;;;5032949;28;20186;-59
2023/01/08 10:52:57;;;;;;;3.20;1.03;;;8.60;99.90;7.80;95085.00;;;;5032850;28;20181;-59
2023/01/08 10:55:30;;;;;;;0.70;0.70;;;8.50;99.90;8.00;95082.00;;;;5032412;28;20239;-59
2023/01/08 10:57:59;;;;;;;0.60;0.60;;;8.70;99.90;7.90;95084.00;;;;5032995;28;20757;-59
2023/01/08 11:00:31;;;;;;;0.60;0.60;;;8.70;99.10;8.20;95082.00;;;;5031548;28;20288;-59
2023/01/08 11:03:01;;;;;;;1.63;1.53;;;8.70;98.00;8.00;95082.00;;;;5032961;28;20586;-59
2023/01/08 11:05:34;;;;;;;0.70;0.70;;;;;8.10;95050.00;;;;5032798;28;20283;-58
2023/01/08 11:08:04;;;;;;;0.70;0.70;;;;;8.00;95061.00;;;;5032629;28;20220;-59
2023/01/08 11:10:34;;;;;;;0.60;0.60;;;8.80;97.80;8.10;95056.00;;;;5033099;28;20267;-59
2023/01/08 11:13:05;;;;;;;1.00;1.00;;;8.80;97.70;8.10;95057.00;;;;5032996;28;20188;-59
2023/01/08 11:15:38;;;;;;;1.37;1.27;;;8.80;98.70;8.20;95053.00;;;;5032705;28;20239;-59
2023/01/08 11:18:20;;;;;;;0.70;0.70;;;8.80;96.80;8.20;95044.00;;;;5032591;28;20244;-59
2023/01/08 11:20:48;;;;;;;0.57;0.57;;;;;8.30;95043.00;;;;5031385;28;20683;-59
2023/01/08 11:23:20;;;;;;;0.87;0.87;;;8.80;97.30;8.10;95039.00;;;;5032833;28;20193;-59
2023/01/08 11:25:59;;;;;;;0.70;0.70;;;;;8.20;95030.00;;;;5032829;28;20181;-59
2023/01/08 11:28:33;;;;;;;0.50;0.50;;;;;8.30;95031.00;;;;5033122;28;20184;-59
2023/01/08 11:31:13;;;;;;;0.80;0.80;;;;;8.40;95022.00;;;;5032668;28;20189;-59
2023/01/08 11:33:41;;;;;;;0.40;0.40;;;9.10;96.60;8.40;95017.00;;;;5032570;28;20193;-59
2023/01/08 11:36:23;;;;;;;0.57;0.57;;;9.10;95.90;8.40;95010.00;;;;5032978;28;20204;-60
2023/01/08 11:38:50;;;;;;;0.90;0.90;;;9.20;94.60;8.70;95018.00;;;;5031334;28;20268;-59
2023/01/08 11:41:35;;;;;;;0.60;0.60;;;9.30;92.60;8.70;95016.00;;;;5032482;28;20268;-59
2023/01/08 11:44:21;;;;;;;0.80;0.80;;;9.30;92.70;8.60;95016.00;;;;5032831;28;20198;-59
2023/01/08 11:46:59;;;;;;;0.63;0.63;;;;;8.40;95010.00;;;;5032847;28;20226;-59
2023/01/08 11:50:04;;;;;;;0.60;0.60;;;;;8.10;95013.00;;;;5032724;28;20613;-59
2023/01/08 11:52:44;;;;;;;0.50;0.50;;;9.10;92.50;8.30;95007.00;;;;5032692;28;20196;-59
2023/01/08 11:55:32;;;;;;;0.60;0.60;;;9.10;91.80;8.40;94991.00;;;;5032901;28;20181;-59
2023/01/08 11:58:27;;;;;;;0.60;0.60;;;9.20;90.80;8.50;94992.00;;;;5032246;28;20217;-59
2023/01/08 12:01:30;;;;;;;0.60;0.60;;;9.10;89.40;8.30;94976.00;;;;5031258;28;20559;-59
2023/01/08 12:04:34;;;;;;;0.50;0.50;;;9.10;90.90;8.60;94965.00;;;;5032378;28;20611;-59
2023/01/08 12:07:18;;;;;;;0.60;0.60;;;9.30;99.90;8.60;94964.00;;;;5034194;28;20227;-59
2023/01/08 12:09:55;;;;;;;0.50;0.50;;;9.30;89.60;8.70;94966.00;;;;5036192;28;20176;-59
2023/01/08 12:12:35;;;;;;;0.50;0.50;;;;;8.60;94968.00;;;;5036062;28;20486;-59
2023/01/08 12:15:13;;;;;;;0.50;0.50;;;;;8.40;94960.00;;;;5035752;28;20235;-59